Marble, North Carolina
Current Conditions -  °F | °C
As of 1:35 PM on Sunday 21 Dec 2014 (Local Time) from KRHP Reporting Station
Overcast Overcast  
Wind Chill: 49°   Ceiling: 3000
Heat Index: 49°   Visibility: 10mi
Dew Point: 40°   Wind: 3mph
Humidity: 70%   Direction: 320°NW
Pressure: 30.13"   Gusts: NA
Location:  35.18°N, 83.92°W
Report Text: KRHP 211835Z AUTO 32003KT 10SM OVC030 10/04 A3013 RMK AO2 T00950043
Loading
Personal Weather Stations






























Interactive Weather Map New forecast layout! Learn more

10-Day Weather Forecast

Advertisements
Track Severe Weather on mobile